createdAt,value
2022-09-12T00:00:49.963Z,81.00
2022-09-12T00:02:49.969Z,81.00
2022-09-12T00:04:49.948Z,81.00
2022-09-12T00:06:49.948Z,81.00
2022-09-12T00:08:49.975Z,81.00
2022-09-12T00:10:50.042Z,81.00
2022-09-12T00:12:49.919Z,82.00
2022-09-12T00:14:49.979Z,82.00
2022-09-12T00:17:19.930Z,82.00
2022-09-12T00:19:19.940Z,82.00
2022-09-12T00:21:19.932Z,82.00
2022-09-12T00:23:19.953Z,82.00
2022-09-12T00:25:19.959Z,82.00
2022-09-12T00:27:20.033Z,82.00
2022-09-12T00:29:20.022Z,82.00
2022-09-12T00:31:20.045Z,82.00
2022-09-12T00:33:19.986Z,82.00
2022-09-12T00:35:19.965Z,82.00
2022-09-12T00:37:19.929Z,82.00
2022-09-12T00:39:19.927Z,82.00
2022-09-12T00:41:19.950Z,82.00
2022-09-12T00:43:20.109Z,82.00
2022-09-12T00:45:19.961Z,82.00
2022-09-12T00:47:19.957Z,82.00
2022-09-12T00:49:19.971Z,82.00
2022-09-12T00:51:19.949Z,82.00
2022-09-12T00:55:19.967Z,82.00
2022-09-12T00:57:20.040Z,82.00
2022-09-12T00:59:19.973Z,82.00
2022-09-12T01:01:20.075Z,82.00
2022-09-12T01:03:19.982Z,82.00
2022-09-12T01:05:20.024Z,82.00
2022-09-12T01:07:20.042Z,82.00
2022-09-12T01:09:20.056Z,82.00
2022-09-12T01:11:19.963Z,82.00
2022-09-12T01:13:19.995Z,82.00
2022-09-12T01:15:20.050Z,82.00
2022-09-12T01:17:20.075Z,82.00
2022-09-12T01:19:20.054Z,82.00
2022-09-12T01:25:19.997Z,82.00
2022-09-12T01:27:29.212Z,82.00
2022-09-12T01:29:29.132Z,83.00
2022-09-12T01:31:29.119Z,83.00
2022-09-12T01:33:29.099Z,83.00
2022-09-12T01:35:29.146Z,83.00
2022-09-12T01:37:29.132Z,83.00
2022-09-12T01:39:29.143Z,83.00
2022-09-12T01:41:29.200Z,83.00
2022-09-12T01:43:29.124Z,83.00
2022-09-12T01:45:29.225Z,83.00
2022-09-12T01:47:29.108Z,83.00
2022-09-12T01:49:29.147Z,83.00
2022-09-12T01:51:29.132Z,83.00
2022-09-12T01:53:29.196Z,83.00
2022-09-12T01:55:29.154Z,83.00
2022-09-12T01:57:29.117Z,83.00
2022-09-12T01:59:29.147Z,83.00
2022-09-12T02:01:29.179Z,83.00
2022-09-12T02:03:29.153Z,83.00
2022-09-12T02:05:29.168Z,83.00
2022-09-12T02:07:29.156Z,83.00
2022-09-12T02:09:29.148Z,83.00
2022-09-12T02:11:29.146Z,83.00
2022-09-12T02:13:29.217Z,83.00
2022-09-12T02:15:29.136Z,82.00
2022-09-12T02:17:29.180Z,82.00
2022-09-12T02:19:29.304Z,82.00
2022-09-12T02:21:29.160Z,82.00
2022-09-12T02:23:29.170Z,82.00
2022-09-12T02:25:29.165Z,82.00
2022-09-12T02:27:29.211Z,82.00
2022-09-12T02:29:29.168Z,82.00
2022-09-12T02:31:29.256Z,82.00
2022-09-12T02:33:29.172Z,82.00
2022-09-12T02:35:29.151Z,82.00
2022-09-12T02:37:29.139Z,82.00
2022-09-12T02:39:59.201Z,82.00
2022-09-12T02:41:59.245Z,82.00
2022-09-12T02:43:59.144Z,82.00
2022-09-12T02:45:59.192Z,82.00
2022-09-12T02:47:59.155Z,82.00
2022-09-12T02:49:59.165Z,82.00
2022-09-12T02:51:59.183Z,82.00
2022-09-12T02:53:59.179Z,82.00
2022-09-12T02:55:59.160Z,82.00
2022-09-12T02:57:59.247Z,82.00
2022-09-12T02:59:59.173Z,82.00
2022-09-12T03:01:59.334Z,82.00
2022-09-12T03:03:59.157Z,82.00
2022-09-12T03:05:59.312Z,82.00
2022-09-12T03:07:59.157Z,83.00
2022-09-12T03:09:59.197Z,83.00
2022-09-12T03:11:59.191Z,83.00
2022-09-12T03:13:59.165Z,83.00
2022-09-12T03:15:59.182Z,83.00
2022-09-12T03:17:59.188Z,83.00
2022-09-12T03:19:59.196Z,83.00
2022-09-12T03:21:59.229Z,83.00
2022-09-12T03:23:59.179Z,83.00
2022-09-12T03:25:59.164Z,83.00
2022-09-12T03:27:59.189Z,83.00
2022-09-12T03:29:59.185Z,83.00
2022-09-12T03:31:59.211Z,83.00
2022-09-12T03:33:59.173Z,83.00
2022-09-12T03:35:59.190Z,83.00
2022-09-12T03:37:59.251Z,83.00
2022-09-12T03:39:59.284Z,83.00
2022-09-12T03:41:59.255Z,83.00
2022-09-12T03:43:59.265Z,83.00
2022-09-12T03:45:59.240Z,83.00
2022-09-12T03:47:59.232Z,83.00
2022-09-12T03:49:59.256Z,83.00
2022-09-12T03:51:59.260Z,83.00
2022-09-12T03:53:59.190Z,83.00
2022-09-12T03:55:59.261Z,83.00
2022-09-12T03:57:59.197Z,83.00
2022-09-12T03:59:59.227Z,83.00
2022-09-12T04:01:59.404Z,83.00
2022-09-12T04:03:59.202Z,83.00
2022-09-12T04:05:59.212Z,83.00
2022-09-12T04:07:59.202Z,83.00
2022-09-12T04:09:59.227Z,83.00
2022-09-12T04:11:59.307Z,83.00
2022-09-12T04:13:59.201Z,83.00
2022-09-12T04:15:59.341Z,83.00
2022-09-12T04:18:02.426Z,83.00
2022-09-12T04:19:59.204Z,83.00
2022-09-12T04:21:59.188Z,83.00
2022-09-12T04:23:59.201Z,83.00
2022-09-12T04:25:59.212Z,83.00
2022-09-12T04:27:59.236Z,83.00
2022-09-12T04:30:29.308Z,83.00
2022-09-12T04:32:29.296Z,83.00
2022-09-12T04:34:29.274Z,83.00
2022-09-12T04:36:29.228Z,83.00
2022-09-12T04:38:29.280Z,83.00
2022-09-12T04:40:29.226Z,83.00
2022-09-12T04:42:31.327Z,83.00
2022-09-12T04:44:29.228Z,83.00
2022-09-12T04:46:29.246Z,83.00
2022-09-12T04:48:29.319Z,83.00
2022-09-12T04:50:29.249Z,83.00
2022-09-12T04:52:29.270Z,83.00
2022-09-12T04:54:29.270Z,83.00
2022-09-12T04:56:29.283Z,83.00
2022-09-12T04:58:29.325Z,83.00
2022-09-12T05:00:29.260Z,83.00
2022-09-12T05:02:29.379Z,83.00
2022-09-12T05:04:29.254Z,83.00
2022-09-12T05:06:30.036Z,83.00
2022-09-12T05:08:29.651Z,83.00
2022-09-12T05:10:29.246Z,83.00
2022-09-12T05:12:29.325Z,83.00
2022-09-12T05:14:29.340Z,83.00
2022-09-12T05:16:29.388Z,83.00
2022-09-12T05:18:29.403Z,83.00
2022-09-12T05:20:29.272Z,83.00
2022-09-12T05:22:29.386Z,83.00
2022-09-12T05:24:29.285Z,83.00
2022-09-12T05:26:29.272Z,83.00
2022-09-12T05:28:29.409Z,83.00
2022-09-12T05:30:29.393Z,83.00
2022-09-12T05:32:32.245Z,84.00
2022-09-12T05:34:32.327Z,84.00
2022-09-12T05:36:29.398Z,84.00
2022-09-12T05:38:29.274Z,84.00
2022-09-12T05:40:29.310Z,84.00
2022-09-12T05:42:29.342Z,84.00
2022-09-12T05:44:29.373Z,84.00
2022-09-12T05:46:29.268Z,84.00
2022-09-12T05:48:29.351Z,84.00
2022-09-12T05:50:29.294Z,84.00
2022-09-12T05:52:29.399Z,84.00
2022-09-12T05:54:31.677Z,84.00
2022-09-12T05:56:29.326Z,84.00
2022-09-12T05:58:29.676Z,84.00
2022-09-12T06:00:31.612Z,84.00
2022-09-12T06:02:29.323Z,84.00
2022-09-12T06:04:29.290Z,84.00
2022-09-12T06:06:29.286Z,84.00
2022-09-12T06:08:29.266Z,84.00
2022-09-12T06:10:29.306Z,84.00
2022-09-12T06:12:30.388Z,84.00
2022-09-12T06:14:29.368Z,84.00
2022-09-12T06:16:29.847Z,84.00
2022-09-12T06:18:59.404Z,84.00
2022-09-12T06:20:59.294Z,84.00
2022-09-12T06:22:59.322Z,84.00
2022-09-12T06:24:59.312Z,84.00
2022-09-12T06:26:59.326Z,84.00
2022-09-12T06:28:59.356Z,84.00
2022-09-12T06:30:59.304Z,84.00
2022-09-12T06:32:59.341Z,84.00
2022-09-12T06:34:59.324Z,84.00
2022-09-12T06:36:59.458Z,84.00
2022-09-12T06:38:59.321Z,84.00
2022-09-12T06:40:59.287Z,84.00
2022-09-12T06:42:59.312Z,84.00
2022-09-12T06:44:59.304Z,84.00
2022-09-12T06:46:59.292Z,84.00
2022-09-12T06:48:59.336Z,84.00
2022-09-12T06:50:59.305Z,84.00
2022-09-12T06:52:59.330Z,84.00
2022-09-12T06:54:59.366Z,84.00
2022-09-12T06:56:59.298Z,84.00
2022-09-12T06:58:59.334Z,84.00
2022-09-12T07:00:59.589Z,84.00
2022-09-12T07:02:59.345Z,84.00
2022-09-12T07:04:59.371Z,84.00
2022-09-12T07:06:59.304Z,84.00
2022-09-12T07:08:59.440Z,84.00
2022-09-12T07:10:59.393Z,84.00
2022-09-12T07:12:59.468Z,84.00
2022-09-12T07:14:59.340Z,84.00
2022-09-12T07:16:59.394Z,84.00
2022-09-12T07:18:59.317Z,84.00
2022-09-12T07:20:59.443Z,84.00
2022-09-12T07:22:59.366Z,84.00
2022-09-12T07:24:59.350Z,84.00
2022-09-12T07:26:59.380Z,84.00
2022-09-12T07:29:13.144Z,84.00
2022-09-12T07:30:59.390Z,84.00
2022-09-12T07:32:59.438Z,84.00
2022-09-12T07:34:59.324Z,84.00
2022-09-12T07:36:59.319Z,84.00
2022-09-12T07:38:59.341Z,84.00
2022-09-12T07:40:59.361Z,84.00
2022-09-12T07:42:59.349Z,84.00
2022-09-12T07:44:59.369Z,84.00
2022-09-12T07:46:59.349Z,84.00
2022-09-12T07:48:59.358Z,84.00
2022-09-12T07:50:59.368Z,84.00
2022-09-12T07:52:59.350Z,83.00
2022-09-12T07:54:59.531Z,83.00
2022-09-12T07:56:59.365Z,83.00
2022-09-12T07:58:59.377Z,83.00
2022-09-12T08:00:59.438Z,83.00
2022-09-12T08:02:59.349Z,83.00
2022-09-12T08:04:59.352Z,81.00
2022-09-12T08:06:59.442Z,80.00
2022-09-12T08:08:59.452Z,80.00
2022-09-12T08:11:29.413Z,78.00
2022-09-12T08:13:29.375Z,77.00
2022-09-12T08:15:29.456Z,76.00
2022-09-12T08:17:29.399Z,76.00
2022-09-12T08:19:29.387Z,74.00
2022-09-12T08:21:29.449Z,73.00
2022-09-12T08:23:29.377Z,73.00
2022-09-12T08:25:29.364Z,71.00
2022-09-12T08:27:29.387Z,71.00
2022-09-12T08:29:29.478Z,71.00
2022-09-12T08:31:29.456Z,70.00
2022-09-12T08:33:29.465Z,69.00
2022-09-12T08:35:29.488Z,68.00
2022-09-12T08:37:29.364Z,68.00
2022-09-12T08:39:10.349Z,68.00
2022-09-12T08:41:10.360Z,68.00
2022-09-12T08:43:10.370Z,66.00
2022-09-12T08:45:10.379Z,66.00
2022-09-12T08:47:10.360Z,65.00
2022-09-12T08:49:10.382Z,63.00
2022-09-12T08:51:10.465Z,63.00
2022-09-12T08:53:40.385Z,62.00
2022-09-12T08:55:40.411Z,62.00
2022-09-12T08:57:40.351Z,62.00
2022-09-12T08:59:40.402Z,62.00
2022-09-12T09:01:40.385Z,62.00
2022-09-12T09:03:40.434Z,62.00
2022-09-12T09:05:40.379Z,62.00
2022-09-12T09:07:40.409Z,61.00
2022-09-12T09:09:40.388Z,61.00
2022-09-12T09:11:40.533Z,61.00
2022-09-12T09:13:40.409Z,61.00
2022-09-12T09:15:40.472Z,60.00
2022-09-12T09:17:40.401Z,60.00
2022-09-12T09:19:40.380Z,60.00
2022-09-12T09:21:40.413Z,60.00
2022-09-12T09:23:40.389Z,60.00
2022-09-12T09:25:40.396Z,60.00
2022-09-12T09:27:41.495Z,59.00
2022-09-12T09:29:40.419Z,58.00
2022-09-12T09:31:40.412Z,58.00
2022-09-12T09:33:40.503Z,58.00
2022-09-12T09:35:40.483Z,59.00
2022-09-12T09:37:40.429Z,59.00
2022-09-12T09:39:40.474Z,58.00
2022-09-12T09:41:40.469Z,58.00
2022-09-12T09:43:40.442Z,57.00
2022-09-12T09:45:43.381Z,57.00
2022-09-12T09:47:40.455Z,57.00
2022-09-12T09:49:40.461Z,57.00
2022-09-12T09:51:40.451Z,57.00
2022-09-12T09:53:40.445Z,58.00
2022-09-12T09:55:40.465Z,56.00
2022-09-12T09:57:40.459Z,57.00
2022-09-12T09:59:40.450Z,55.00
2022-09-12T10:01:40.465Z,55.00
2022-09-12T10:03:40.461Z,55.00
2022-09-12T10:05:40.424Z,55.00
2022-09-12T10:07:40.432Z,55.00
2022-09-12T10:09:40.435Z,54.00
2022-09-12T10:11:45.116Z,54.00
2022-09-12T10:13:40.435Z,52.00
2022-09-12T10:15:40.466Z,54.00
2022-09-12T10:17:40.427Z,53.00
2022-09-12T10:19:40.463Z,53.00
2022-09-12T10:21:41.434Z,53.00
2022-09-12T10:23:40.467Z,53.00
2022-09-12T10:25:40.459Z,53.00
2022-09-12T10:27:40.491Z,54.00
2022-09-12T10:29:40.461Z,54.00
2022-09-12T10:31:40.489Z,53.00
2022-09-12T10:33:40.447Z,53.00
2022-09-12T10:35:40.489Z,54.00
2022-09-12T10:37:40.503Z,53.00
2022-09-12T10:39:40.533Z,53.00
2022-09-12T10:41:40.561Z,52.00
2022-09-12T10:43:40.545Z,52.00
2022-09-12T10:45:40.567Z,53.00
2022-09-12T10:47:40.484Z,53.00
2022-09-12T10:49:40.492Z,53.00
2022-09-12T10:51:40.604Z,54.00
2022-09-12T10:53:40.527Z,53.00
2022-09-12T10:56:10.520Z,53.00
2022-09-12T10:58:10.539Z,52.00
2022-09-12T11:00:10.549Z,52.00
2022-09-12T11:02:10.560Z,52.00
2022-09-12T11:04:10.606Z,52.00
2022-09-12T11:06:10.614Z,52.00
2022-09-12T11:08:10.628Z,52.00
2022-09-12T11:10:10.520Z,53.00
2022-09-12T11:12:10.498Z,53.00
2022-09-12T11:14:10.520Z,53.00
2022-09-12T11:16:10.628Z,52.00
2022-09-12T11:18:10.511Z,53.00
2022-09-12T11:20:10.523Z,53.00
2022-09-12T11:22:10.496Z,53.00
2022-09-12T11:24:10.634Z,53.00
2022-09-12T11:26:10.587Z,53.00
2022-09-12T11:28:10.599Z,53.00
2022-09-12T11:30:10.614Z,53.00
2022-09-12T11:32:10.626Z,52.00
2022-09-12T11:34:10.568Z,53.00
2022-09-12T11:36:10.535Z,52.00
2022-09-12T11:38:10.566Z,53.00
2022-09-12T11:40:10.748Z,53.00
2022-09-12T11:42:10.568Z,53.00
2022-09-12T11:44:10.626Z,53.00
2022-09-12T11:46:10.682Z,52.00
2022-09-12T11:48:10.641Z,52.00
2022-09-12T11:50:10.615Z,52.00
2022-09-12T11:52:10.941Z,51.00
2022-09-12T11:54:10.634Z,51.00
2022-09-12T11:56:10.543Z,52.00
2022-09-12T11:58:10.568Z,52.00
2022-09-12T12:00:10.631Z,52.00
2022-09-12T12:02:10.687Z,48.00
2022-09-12T12:04:10.720Z,48.00
2022-09-12T12:06:10.695Z,50.00
2022-09-12T12:08:10.640Z,50.00
2022-09-12T12:10:10.737Z,49.00
2022-09-12T12:12:10.678Z,48.00
2022-09-12T12:14:10.616Z,48.00
2022-09-12T12:16:10.671Z,48.00
2022-09-12T12:18:10.651Z,48.00
2022-09-12T12:20:10.753Z,47.00
2022-09-12T12:22:11.745Z,50.00
2022-09-12T12:24:10.737Z,48.00
2022-09-12T12:26:10.681Z,48.00
2022-09-12T12:28:10.755Z,49.00
2022-09-12T12:30:10.628Z,49.00
2022-09-12T12:32:10.632Z,48.00
2022-09-12T12:34:10.694Z,49.00
2022-09-12T12:36:10.673Z,49.00
2022-09-12T12:38:10.604Z,47.00
2022-09-12T12:40:10.694Z,47.00
2022-09-12T12:42:10.871Z,47.00
2022-09-12T12:44:10.771Z,47.00
2022-09-12T12:46:10.742Z,47.00
2022-09-12T12:48:10.669Z,49.00
2022-09-12T12:50:10.727Z,49.00
2022-09-12T12:52:10.743Z,48.00
2022-09-12T12:54:13.030Z,48.00
2022-09-12T12:56:40.771Z,47.00
2022-09-12T12:58:40.762Z,48.00
2022-09-12T13:00:40.747Z,48.00
2022-09-12T13:02:40.670Z,49.00
2022-09-12T13:04:40.694Z,49.00
2022-09-12T13:06:40.744Z,48.00
2022-09-12T13:08:40.752Z,49.00
2022-09-12T13:10:40.736Z,48.00
2022-09-12T13:12:40.938Z,48.00
2022-09-12T13:14:40.728Z,48.00
2022-09-12T13:16:40.844Z,48.00
2022-09-12T13:18:40.669Z,48.00
2022-09-12T13:20:40.708Z,49.00
2022-09-12T13:22:40.689Z,49.00
2022-09-12T13:24:40.726Z,48.00
2022-09-12T13:26:40.844Z,48.00
2022-09-12T13:28:40.867Z,48.00
2022-09-12T13:30:40.817Z,46.00
2022-09-12T13:32:40.809Z,46.00
2022-09-12T13:34:40.723Z,46.00
2022-09-12T13:36:40.739Z,46.00
2022-09-12T13:38:40.729Z,47.00
2022-09-12T13:40:40.750Z,46.00
2022-09-12T13:42:40.772Z,46.00
2022-09-12T13:44:40.806Z,44.00
2022-09-12T13:46:40.825Z,47.00
2022-09-12T13:48:41.029Z,48.00
2022-09-12T13:50:40.954Z,48.00
2022-09-12T13:52:41.036Z,47.00
2022-09-12T13:54:40.993Z,46.00
2022-09-12T13:56:40.764Z,47.00
2022-09-12T13:58:40.765Z,48.00
2022-09-12T14:00:40.777Z,48.00
2022-09-12T14:02:40.878Z,48.00
2022-09-12T14:04:40.711Z,49.00
2022-09-12T14:06:41.621Z,49.00
2022-09-12T14:08:41.211Z,48.00
2022-09-12T14:10:41.043Z,48.00
2022-09-12T14:12:41.878Z,48.00
2022-09-12T14:14:41.147Z,48.00
2022-09-12T14:16:40.817Z,47.00
2022-09-12T14:18:41.099Z,47.00
2022-09-12T14:20:40.857Z,49.00
2022-09-12T14:22:40.730Z,47.00
2022-09-12T14:24:40.760Z,47.00
2022-09-12T14:26:40.733Z,49.00
2022-09-12T14:28:40.764Z,49.00
2022-09-12T14:30:40.862Z,49.00
2022-09-12T14:32:40.783Z,49.00
2022-09-12T14:34:40.761Z,49.00
2022-09-12T14:36:40.735Z,49.00
2022-09-12T14:38:40.691Z,49.00
2022-09-12T14:40:40.776Z,50.00
2022-09-12T14:42:40.750Z,53.00
2022-09-12T14:44:40.777Z,50.00
2022-09-12T14:46:40.900Z,50.00
2022-09-12T14:48:40.924Z,50.00
2022-09-12T14:50:40.842Z,50.00
2022-09-12T14:52:40.713Z,51.00
2022-09-12T14:54:40.818Z,51.00
2022-09-12T14:56:40.762Z,51.00
2022-09-12T14:59:10.807Z,52.00
2022-09-12T15:01:10.847Z,52.00
2022-09-12T15:03:10.805Z,52.00
2022-09-12T15:05:10.832Z,51.00
2022-09-12T15:07:10.811Z,51.00
2022-09-12T15:09:10.878Z,51.00
2022-09-12T15:11:10.777Z,51.00
2022-09-12T15:13:10.795Z,52.00
2022-09-12T15:15:10.841Z,52.00
2022-09-12T15:17:10.791Z,52.00
2022-09-12T15:19:10.870Z,52.00
2022-09-12T15:21:10.851Z,51.00
2022-09-12T15:23:10.865Z,51.00
2022-09-12T15:25:10.859Z,51.00
2022-09-12T15:27:10.801Z,51.00
2022-09-12T15:29:18.270Z,51.00
2022-09-12T15:31:18.506Z,51.00
2022-09-12T15:33:18.415Z,51.00
2022-09-12T15:35:18.325Z,52.00
2022-09-12T15:37:18.337Z,52.00
2022-09-12T15:39:18.339Z,52.00
2022-09-12T15:41:18.400Z,52.00
2022-09-12T15:43:18.373Z,53.00
2022-09-12T15:45:18.439Z,53.00
2022-09-12T15:47:18.448Z,53.00
2022-09-12T15:49:18.444Z,53.00
2022-09-12T15:51:18.359Z,53.00
2022-09-12T15:53:18.378Z,53.00
2022-09-12T15:55:18.369Z,53.00
2022-09-12T15:57:18.411Z,53.00
2022-09-12T15:59:18.392Z,53.00
2022-09-12T16:01:18.762Z,53.00
2022-09-12T16:03:18.436Z,53.00
2022-09-12T16:05:18.477Z,53.00
2022-09-12T16:07:18.363Z,53.00
2022-09-12T16:09:18.353Z,53.00
2022-09-12T16:11:18.419Z,54.00
2022-09-12T16:13:18.374Z,54.00
2022-09-12T16:15:18.441Z,54.00
2022-09-12T16:17:18.714Z,54.00
2022-09-12T16:19:18.460Z,54.00
2022-09-12T16:21:18.486Z,54.00
2022-09-12T16:23:18.401Z,55.00
2022-09-12T16:25:18.405Z,55.00
2022-09-12T16:27:18.350Z,54.00
2022-09-12T16:29:18.393Z,55.00
2022-09-12T16:31:18.488Z,55.00
2022-09-12T16:33:18.479Z,55.00
2022-09-12T16:35:18.458Z,55.00
2022-09-12T16:37:18.384Z,56.00
2022-09-12T16:39:18.385Z,56.00
2022-09-12T16:41:18.432Z,56.00
2022-09-12T16:43:18.410Z,56.00
2022-09-12T16:45:18.422Z,56.00
2022-09-12T16:47:18.430Z,56.00
2022-09-12T16:49:18.522Z,56.00
2022-09-12T16:51:18.487Z,57.00
2022-09-12T16:53:18.381Z,57.00
2022-09-12T16:55:18.396Z,57.00
2022-09-12T16:57:18.409Z,57.00
2022-09-12T16:59:18.439Z,57.00
2022-09-12T17:01:18.465Z,58.00
2022-09-12T17:03:18.466Z,58.00
2022-09-12T17:05:18.477Z,58.00
2022-09-12T17:07:18.500Z,58.00
2022-09-12T17:09:18.399Z,58.00
2022-09-12T17:11:18.445Z,59.00
2022-09-12T17:13:18.459Z,59.00
2022-09-12T17:15:18.472Z,59.00
2022-09-12T17:17:18.481Z,59.00
2022-09-12T17:19:18.444Z,59.00
2022-09-12T17:21:18.505Z,59.00
2022-09-12T17:23:18.491Z,59.00
2022-09-12T17:25:18.387Z,59.00
2022-09-12T17:27:48.389Z,60.00
2022-09-12T17:29:48.463Z,60.00
2022-09-12T17:31:48.449Z,60.00
2022-09-12T17:33:48.708Z,60.00
2022-09-12T17:35:48.482Z,60.00
2022-09-12T17:37:48.497Z,60.00
2022-09-12T17:39:48.516Z,60.00
2022-09-12T17:41:48.755Z,60.00
2022-09-12T17:43:48.611Z,60.00
2022-09-12T17:45:48.469Z,63.00
2022-09-12T17:47:48.474Z,63.00
2022-09-12T17:49:48.500Z,63.00
2022-09-12T17:51:48.504Z,63.00
2022-09-12T17:53:48.543Z,64.00
2022-09-12T17:55:51.494Z,64.00
2022-09-12T17:57:48.448Z,64.00
2022-09-12T17:59:48.457Z,64.00
2022-09-12T18:01:48.643Z,64.00
2022-09-12T18:03:48.618Z,65.00
2022-09-12T18:05:48.584Z,65.00
2022-09-12T18:07:48.561Z,65.00
2022-09-12T18:09:48.513Z,65.00
2022-09-12T18:11:48.433Z,65.00
2022-09-12T18:13:48.536Z,65.00
2022-09-12T18:15:48.533Z,65.00
2022-09-12T18:17:48.477Z,67.00
2022-09-12T18:19:52.882Z,67.00
2022-09-12T18:21:48.541Z,67.00
2022-09-12T18:23:48.577Z,67.00
2022-09-12T18:25:48.473Z,67.00
2022-09-12T18:27:48.447Z,67.00
2022-09-12T18:30:04.286Z,69.00
2022-09-12T18:31:48.475Z,69.00
2022-09-12T18:33:48.604Z,69.00
2022-09-12T18:35:48.570Z,69.00
2022-09-12T18:37:48.510Z,69.00
2022-09-12T18:39:48.604Z,69.00
2022-09-12T18:41:48.444Z,69.00
2022-09-12T18:43:48.677Z,69.00
2022-09-12T18:45:48.511Z,69.00
2022-09-12T18:47:48.519Z,69.00
2022-09-12T18:49:48.547Z,69.00
2022-09-12T18:51:48.540Z,69.00
2022-09-12T18:53:48.656Z,69.00
2022-09-12T18:55:48.576Z,69.00
2022-09-12T18:57:48.478Z,70.00
2022-09-12T18:59:48.515Z,70.00
2022-09-12T19:01:48.562Z,70.00
2022-09-12T19:03:48.606Z,70.00
2022-09-12T19:05:48.545Z,70.00
2022-09-12T19:07:48.577Z,70.00
2022-09-12T19:09:48.548Z,70.00
2022-09-12T19:11:48.591Z,70.00
2022-09-12T19:13:48.553Z,70.00
2022-09-12T19:15:48.601Z,70.00
2022-09-12T19:17:48.467Z,70.00
2022-09-12T19:19:48.536Z,70.00
2022-09-12T19:21:48.579Z,70.00
2022-09-12T19:24:18.580Z,72.00
2022-09-12T19:26:18.598Z,72.00
2022-09-12T19:28:18.498Z,72.00
2022-09-12T19:30:18.491Z,72.00
2022-09-12T19:32:18.493Z,72.00
2022-09-12T19:34:18.501Z,73.00
2022-09-12T19:36:41.341Z,73.00
2022-09-12T19:38:18.465Z,73.00
2022-09-12T19:40:18.613Z,73.00
2022-09-12T19:42:18.661Z,73.00
2022-09-12T19:44:18.742Z,73.00
2022-09-12T19:46:18.541Z,73.00
2022-09-12T19:48:18.490Z,73.00
2022-09-12T19:50:18.497Z,73.00
2022-09-12T19:52:18.525Z,73.00
2022-09-12T19:54:18.483Z,72.00
2022-09-12T19:56:18.701Z,72.00
2022-09-12T19:58:18.640Z,72.00
2022-09-12T20:00:18.514Z,71.00
2022-09-12T20:02:18.592Z,71.00
2022-09-12T20:04:18.532Z,71.00
2022-09-12T20:06:18.572Z,71.00
2022-09-12T20:08:18.600Z,71.00
2022-09-12T20:10:18.528Z,71.00
2022-09-12T20:12:18.538Z,71.00
2022-09-12T20:14:18.523Z,72.00
2022-09-12T20:16:21.702Z,72.00
2022-09-12T20:18:18.564Z,72.00
2022-09-12T20:20:18.579Z,72.00
2022-09-12T20:22:18.616Z,72.00
2022-09-12T20:24:18.499Z,72.00
2022-09-12T20:26:18.645Z,72.00
2022-09-12T20:28:18.529Z,73.00
2022-09-12T20:30:18.522Z,73.00
2022-09-12T20:32:18.567Z,73.00
2022-09-12T20:34:18.501Z,73.00
2022-09-12T20:36:18.584Z,73.00
2022-09-12T20:38:18.543Z,73.00
2022-09-12T20:40:18.600Z,73.00
2022-09-12T20:42:18.529Z,73.00
2022-09-12T20:44:18.524Z,73.00
2022-09-12T20:46:21.623Z,73.00
2022-09-12T20:48:18.561Z,73.00
2022-09-12T20:50:18.591Z,73.00
2022-09-12T20:52:18.537Z,73.00
2022-09-12T20:54:18.589Z,73.00
2022-09-12T20:56:18.548Z,72.00
2022-09-12T20:58:18.532Z,71.00
2022-09-12T21:00:18.570Z,71.00
2022-09-12T21:02:18.710Z,71.00
2022-09-12T21:04:18.540Z,71.00
2022-09-12T21:06:18.556Z,71.00
2022-09-12T21:08:18.535Z,70.00
2022-09-12T21:10:18.516Z,70.00
2022-09-12T21:12:18.598Z,70.00
2022-09-12T21:14:18.602Z,70.00
2022-09-12T21:16:18.609Z,70.00
2022-09-12T21:18:18.567Z,69.00
2022-09-12T21:20:48.638Z,69.00
2022-09-12T21:22:48.617Z,69.00
2022-09-12T21:24:48.648Z,69.00
2022-09-12T21:26:48.540Z,69.00
2022-09-12T21:28:48.601Z,69.00
2022-09-12T21:30:48.787Z,69.00
2022-09-12T21:32:48.575Z,69.00
2022-09-12T21:34:48.551Z,69.00
2022-09-12T21:36:48.595Z,68.00
2022-09-12T21:38:48.589Z,68.00
2022-09-12T21:40:48.651Z,68.00
2022-09-12T21:42:48.696Z,67.00
2022-09-12T21:44:48.583Z,67.00
2022-09-12T21:46:48.654Z,67.00
2022-09-12T21:48:48.609Z,67.00
2022-09-12T21:50:48.571Z,67.00
2022-09-12T21:52:48.574Z,67.00
2022-09-12T21:54:48.594Z,67.00
2022-09-12T21:56:48.585Z,67.00
2022-09-12T21:58:48.669Z,67.00
2022-09-12T22:00:48.626Z,67.00
2022-09-12T22:02:48.650Z,67.00
2022-09-12T22:04:48.618Z,67.00
2022-09-12T22:06:48.559Z,67.00
2022-09-12T22:08:48.654Z,67.00
2022-09-12T22:10:48.674Z,67.00
2022-09-12T22:12:48.645Z,67.00
2022-09-12T22:14:48.645Z,67.00
2022-09-12T22:16:48.596Z,68.00
2022-09-12T22:18:48.657Z,68.00
2022-09-12T22:20:48.592Z,68.00
2022-09-12T22:22:48.606Z,68.00
2022-09-12T22:24:48.690Z,68.00
2022-09-12T22:26:48.629Z,68.00
2022-09-12T22:28:48.770Z,68.00
2022-09-12T22:30:48.873Z,69.00
2022-09-12T22:32:48.672Z,69.00
2022-09-12T22:34:48.773Z,69.00
2022-09-12T22:36:48.635Z,69.00
2022-09-12T22:38:59.694Z,69.00
2022-09-12T22:40:59.665Z,69.00
2022-09-12T22:42:59.659Z,69.00
2022-09-12T22:44:59.687Z,69.00
2022-09-12T22:46:59.781Z,69.00
2022-09-12T22:48:59.727Z,70.00
2022-09-12T22:50:59.680Z,70.00
2022-09-12T22:52:59.765Z,70.00
2022-09-12T22:54:59.689Z,70.00
2022-09-12T22:56:59.702Z,70.00
2022-09-12T22:58:59.716Z,70.00
2022-09-12T23:00:59.807Z,70.00
2022-09-12T23:02:59.753Z,70.00
2022-09-12T23:04:59.731Z,70.00
2022-09-12T23:06:59.727Z,69.00
2022-09-12T23:08:59.712Z,69.00
2022-09-12T23:10:59.702Z,69.00
2022-09-12T23:12:59.685Z,69.00
2022-09-12T23:14:59.713Z,69.00
2022-09-12T23:16:59.747Z,69.00
2022-09-12T23:18:59.712Z,69.00
2022-09-12T23:20:59.707Z,69.00
2022-09-12T23:22:59.721Z,69.00
2022-09-12T23:24:59.694Z,69.00
2022-09-12T23:26:59.745Z,69.00
2022-09-12T23:28:59.739Z,69.00
2022-09-12T23:30:59.861Z,68.00
2022-09-12T23:32:59.863Z,69.00
2022-09-12T23:34:59.728Z,69.00
2022-09-12T23:36:59.720Z,69.00
2022-09-12T23:38:59.743Z,68.00
2022-09-12T23:40:59.779Z,68.00
2022-09-12T23:42:59.725Z,69.00
2022-09-12T23:44:59.744Z,69.00
2022-09-12T23:46:59.850Z,69.00
2022-09-12T23:48:59.746Z,68.00
2022-09-12T23:50:59.728Z,68.00
2022-09-12T23:52:59.838Z,68.00
2022-09-12T23:54:59.710Z,68.00
2022-09-12T23:56:59.780Z,69.00
2022-09-12T23:59:29.745Z,69.00
